SBOSBO FNC / LPMA
Speedbird OnlineSpeedbird Online FNC / LPMA

Madeira Airport
00:01 14.3°C

Location Funchal, Portugal
Latitude: 32.697899
Longitude: -16.7745
Web Airport Website | Wikipedia
Altitude 59 Meter / 192 Feet
Distance 2,501 KM / 1,554 Miles
from London.
Time Zone UTC 0 hours (Europe/Lisbon)
Codes IATA: FNC
ICAO: LPMA
Currency £1 equals EUR 1.13
Runways
RunwayLength (m)Surface
052777Asphalt
232777Asphalt
Radio
TypeDescriptionFrequency
APPAPP119.2
TWRTWR118.35
Live ATC
METAR LPMA 081430Z 34005KT 280V030 9999 SCT016 BKN060 16/09 Q1021
TAF TAF LPMA 081100Z 0812/0912 35010KT 9999 SCT015 BKN030 PROB30 TEMPO 0812/0912 8000 SHRA BKN015
Weather As Of 09 Feb 2023 00:01
Description Light intensity shower rain
Wind 11 km/h from North (350°)
Cloud Cover 75%
Precipitation Rain: none, Snow: none
Sunrise 07:56
Sunset 18:46
Rotations During the last 90 days there were
76 flights from LHR
75 flights to LHR
1 flights to BES



Support Speedbird Online

© 2017-2023 Speedbird Online